sensor_id;sensor_type;location;lat;lon;timestamp;temperature;humidity
35244;DHT22;37916;52.160;21.066;2022-12-24T00:00:19;7.00;90.30
35244;DHT22;37916;52.160;21.066;2022-12-24T00:10:19;7.10;90.50
35244;DHT22;37916;52.160;21.066;2022-12-24T00:20:20;7.10;90.50
35244;DHT22;37916;52.160;21.066;2022-12-24T00:30:21;7.20;90.50
35244;DHT22;37916;52.160;21.066;2022-12-24T00:40:21;7.20;90.40
35244;DHT22;37916;52.160;21.066;2022-12-24T00:50:22;7.20;90.40
35244;DHT22;37916;52.160;21.066;2022-12-24T01:00:23;7.20;90.40
35244;DHT22;37916;52.160;21.066;2022-12-24T01:10:23;7.20;90.50
35244;DHT22;37916;52.160;21.066;2022-12-24T01:20:24;7.20;90.20
35244;DHT22;37916;52.160;21.066;2022-12-24T01:30:30;7.00;89.80
35244;DHT22;37916;52.160;21.066;2022-12-24T01:40:32;7.10;90.10
35244;DHT22;37916;52.160;21.066;2022-12-24T01:50:55;6.90;89.70
35244;DHT22;37916;52.160;21.066;2022-12-24T02:00:57;7.00;89.80
35244;DHT22;37916;52.160;21.066;2022-12-24T02:10:58;7.10;90.20
35244;DHT22;37916;52.160;21.066;2022-12-24T02:32:01;7.10;90.20
35244;DHT22;37916;52.160;21.066;2022-12-24T02:42:05;7.00;90.00
35244;DHT22;37916;52.160;21.066;2022-12-24T02:52:33;6.80;89.80
35244;DHT22;37916;52.160;21.066;2022-12-24T03:12:44;6.50;90.00
35244;DHT22;37916;52.160;21.066;2022-12-24T03:22:46;6.50;90.00
35244;DHT22;37916;52.160;21.066;2022-12-24T03:32:47;6.40;90.00
35244;DHT22;37916;52.160;21.066;2022-12-24T03:42:47;6.30;90.50
35244;DHT22;37916;52.160;21.066;2022-12-24T03:52:48;6.00;90.50
35244;DHT22;37916;52.160;21.066;2022-12-24T04:02:49;5.80;90.80
35244;DHT22;37916;52.160;21.066;2022-12-24T04:12:49;5.70;90.80
35244;DHT22;37916;52.160;21.066;2022-12-24T04:22:51;5.50;91.00
35244;DHT22;37916;52.160;21.066;2022-12-24T04:32:52;5.50;91.20
35244;DHT22;37916;52.160;21.066;2022-12-24T04:42:53;5.50;91.30
35244;DHT22;37916;52.160;21.066;2022-12-24T04:52:53;5.50;91.40
35244;DHT22;37916;52.160;21.066;2022-12-24T05:02:54;5.70;91.70
35244;DHT22;37916;52.160;21.066;2022-12-24T05:12:55;5.50;91.20
35244;DHT22;37916;52.160;21.066;2022-12-24T05:22:55;5.30;91.30
35244;DHT22;37916;52.160;21.066;2022-12-24T05:33:14;5.50;91.60
35244;DHT22;37916;52.160;21.066;2022-12-24T05:43:15;5.40;91.70
35244;DHT22;37916;52.160;21.066;2022-12-24T05:53:16;5.30;91.80
35244;DHT22;37916;52.160;21.066;2022-12-24T06:03:16;5.40;91.80
35244;DHT22;37916;52.160;21.066;2022-12-24T06:13:17;5.40;92.00
35244;DHT22;37916;52.160;21.066;2022-12-24T06:23:18;5.30;91.80
35244;DHT22;37916;52.160;21.066;2022-12-24T06:33:19;5.20;91.90
35244;DHT22;37916;52.160;21.066;2022-12-24T06:43:20;5.30;91.90
35244;DHT22;37916;52.160;21.066;2022-12-24T06:53:20;5.20;91.70
35244;DHT22;37916;52.160;21.066;2022-12-24T07:03:22;5.20;91.70
35244;DHT22;37916;52.160;21.066;2022-12-24T07:13:23;5.30;91.60
35244;DHT22;37916;52.160;21.066;2022-12-24T07:23:24;5.20;92.00
35244;DHT22;37916;52.160;21.066;2022-12-24T07:33:25;5.20;92.40
35244;DHT22;37916;52.160;21.066;2022-12-24T07:43:26;5.30;92.60
35244;DHT22;37916;52.160;21.066;2022-12-24T07:53:28;5.30;92.60
35244;DHT22;37916;52.160;21.066;2022-12-24T08:03:29;5.30;92.60
35244;DHT22;37916;52.160;21.066;2022-12-24T08:13:30;5.30;92.50
35244;DHT22;37916;52.160;21.066;2022-12-24T08:23:31;5.30;92.40
35244;DHT22;37916;52.160;21.066;2022-12-24T08:33:32;5.30;92.40
35244;DHT22;37916;52.160;21.066;2022-12-24T08:43:33;5.30;92.60
35244;DHT22;37916;52.160;21.066;2022-12-24T08:53:34;5.40;92.70
35244;DHT22;37916;52.160;21.066;2022-12-24T09:03:34;5.50;92.70
35244;DHT22;37916;52.160;21.066;2022-12-24T09:13:35;5.40;92.30
35244;DHT22;37916;52.160;21.066;2022-12-24T09:23:37;5.30;92.30
35244;DHT22;37916;52.160;21.066;2022-12-24T09:33:43;5.50;92.70
35244;DHT22;37916;52.160;21.066;2022-12-24T09:43:46;5.70;92.30
35244;DHT22;37916;52.160;21.066;2022-12-24T10:04:09;5.90;91.90
35244;DHT22;37916;52.160;21.066;2022-12-24T10:14:19;5.80;91.30
35244;DHT22;37916;52.160;21.066;2022-12-24T10:24:53;5.90;91.80
35244;DHT22;37916;52.160;21.066;2022-12-24T10:35:00;5.90;91.40
35244;DHT22;37916;52.160;21.066;2022-12-24T10:45:06;5.90;91.00
35244;DHT22;37916;52.160;21.066;2022-12-24T11:05:34;6.10;91.40
35244;DHT22;37916;52.160;21.066;2022-12-24T11:15:34;6.00;91.40
35244;DHT22;37916;52.160;21.066;2022-12-24T11:25:39;5.80;91.10
35244;DHT22;37916;52.160;21.066;2022-12-24T11:35:46;5.70;91.00
35244;DHT22;37916;52.160;21.066;2022-12-24T11:45:55;5.60;90.50
35244;DHT22;37916;52.160;21.066;2022-12-24T11:55:58;5.70;90.80
35244;DHT22;37916;52.160;21.066;2022-12-24T12:06:03;5.60;91.10
35244;DHT22;37916;52.160;21.066;2022-12-24T12:16:27;5.60;90.80
35244;DHT22;37916;52.160;21.066;2022-12-24T12:37:16;5.70;91.10
35244;DHT22;37916;52.160;21.066;2022-12-24T12:58:26;5.50;90.30
35244;DHT22;37916;52.160;21.066;2022-12-24T13:50:27;5.90;90.90
35244;DHT22;37916;52.160;21.066;2022-12-24T14:10:39;5.70;90.00
35244;DHT22;37916;52.160;21.066;2022-12-24T14:20:41;5.60;89.90
35244;DHT22;37916;52.160;21.066;2022-12-24T14:30:42;5.60;90.20
35244;DHT22;37916;52.160;21.066;2022-12-24T15:01:36;5.50;90.10
35244;DHT22;37916;52.160;21.066;2022-12-24T15:11:37;5.40;90.20
35244;DHT22;37916;52.160;21.066;2022-12-24T15:21:38;5.20;90.30
35244;DHT22;37916;52.160;21.066;2022-12-24T15:31:41;4.90;90.80
35244;DHT22;37916;52.160;21.066;2022-12-24T15:41:44;4.70;90.70
35244;DHT22;37916;52.160;21.066;2022-12-24T15:52:05;4.70;91.10
35244;DHT22;37916;52.160;21.066;2022-12-24T16:02:17;4.60;91.20
35244;DHT22;37916;52.160;21.066;2022-12-24T16:12:24;4.50;91.30
35244;DHT22;37916;52.160;21.066;2022-12-24T16:22:25;4.60;91.50
35244;DHT22;37916;52.160;21.066;2022-12-24T16:32:34;4.50;91.60
35244;DHT22;37916;52.160;21.066;2022-12-24T16:42:35;4.50;91.50
35244;DHT22;37916;52.160;21.066;2022-12-24T16:52:54;4.40;91.50
35244;DHT22;37916;52.160;21.066;2022-12-24T17:02:54;4.40;91.60
35244;DHT22;37916;52.160;21.066;2022-12-24T17:12:55;4.40;91.70
35244;DHT22;37916;52.160;21.066;2022-12-24T17:22:56;4.40;91.80
35244;DHT22;37916;52.160;21.066;2022-12-24T17:32:58;4.30;91.70
35244;DHT22;37916;52.160;21.066;2022-12-24T17:42:58;4.30;91.60
35244;DHT22;37916;52.160;21.066;2022-12-24T17:52:59;4.30;91.70
35244;DHT22;37916;52.160;21.066;2022-12-24T18:03:00;4.20;91.60
35244;DHT22;37916;52.160;21.066;2022-12-24T18:13:01;4.30;91.90
35244;DHT22;37916;52.160;21.066;2022-12-24T18:23:02;4.50;92.10
35244;DHT22;37916;52.160;21.066;2022-12-24T18:33:02;4.30;91.80
35244;DHT22;37916;52.160;21.066;2022-12-24T18:43:03;4.40;92.10
35244;DHT22;37916;52.160;21.066;2022-12-24T18:53:05;4.10;91.60
35244;DHT22;37916;52.160;21.066;2022-12-24T19:03:06;4.10;92.10
35244;DHT22;37916;52.160;21.066;2022-12-24T19:13:07;4.30;92.40
35244;DHT22;37916;52.160;21.066;2022-12-24T19:23:08;4.00;92.00
35244;DHT22;37916;52.160;21.066;2022-12-24T19:33:09;3.90;92.10
35244;DHT22;37916;52.160;21.066;2022-12-24T19:43:10;4.00;92.40
35244;DHT22;37916;52.160;21.066;2022-12-24T19:53:10;4.00;92.00
35244;DHT22;37916;52.160;21.066;2022-12-24T20:03:11;4.00;92.30
35244;DHT22;37916;52.160;21.066;2022-12-24T20:13:12;4.00;92.30
35244;DHT22;37916;52.160;21.066;2022-12-24T20:23:12;4.10;92.50
35244;DHT22;37916;52.160;21.066;2022-12-24T20:33:13;3.90;92.30
35244;DHT22;37916;52.160;21.066;2022-12-24T20:43:14;4.10;92.50
35244;DHT22;37916;52.160;21.066;2022-12-24T20:53:14;4.00;92.60
35244;DHT22;37916;52.160;21.066;2022-12-24T21:03:16;4.10;92.80
35244;DHT22;37916;52.160;21.066;2022-12-24T21:13:17;4.20;92.90
35244;DHT22;37916;52.160;21.066;2022-12-24T21:23:18;4.30;92.80
35244;DHT22;37916;52.160;21.066;2022-12-24T21:33:20;4.30;92.80
35244;DHT22;37916;52.160;21.066;2022-12-24T21:43:20;4.40;92.80
35244;DHT22;37916;52.160;21.066;2022-12-24T21:53:21;4.20;92.40
35244;DHT22;37916;52.160;21.066;2022-12-24T22:03:40;4.10;92.30
35244;DHT22;37916;52.160;21.066;2022-12-24T22:13:41;4.10;92.40
35244;DHT22;37916;52.160;21.066;2022-12-24T22:23:42;4.10;92.40
35244;DHT22;37916;52.160;21.066;2022-12-24T22:33:43;4.00;92.30
35244;DHT22;37916;52.160;21.066;2022-12-24T22:43:43;4.00;92.10
35244;DHT22;37916;52.160;21.066;2022-12-24T22:53:45;4.10;92.20
35244;DHT22;37916;52.160;21.066;2022-12-24T23:03:45;4.00;92.10
35244;DHT22;37916;52.160;21.066;2022-12-24T23:13:46;4.00;92.00
35244;DHT22;37916;52.160;21.066;2022-12-24T23:24:07;4.00;92.10
35244;DHT22;37916;52.160;21.066;2022-12-24T23:34:08;4.00;92.00
35244;DHT22;37916;52.160;21.066;2022-12-24T23:44:09;4.00;92.00
35244;DHT22;37916;52.160;21.066;2022-12-24T23:54:09;4.10;92.00
